PWSweather.com
Personal Weather Stations
Station Observations
MANRESA
Manresa Catalonia, ManresaES 08243

Manresa CataloniaManresaES 08243

Lat: 41.731, Lon: 1.834

Elevation: 824

Station Type: Oregon Scientífic WMR-200

Latest ConditionsUpdated 3:07:02 AM GMT+01:01 Sunday, Feb 24, 2019
Currently Today's Max Today's Min Today's Average
Temperature 44.6°F7.0°C 49.8°F9.9°C 43.9°F6.6°C 46.7°F8.2°C
Dew Point 32.4°F0.2°C 35.1°F1.7°C 30.4°F-0.9°C 32.4°F0.2°C
Winds 0.4 mph NNE0.6 kmh NNE 4.3 mph -6.9 kmh - - 1.3 mph 2.1 kmh
Wind Gusts -- 4.5 mph7.2 kmh - -
Humidity 62% 66% 51% 57%
Pressure 30.43 in1030.5 mb 30.43 in1030.5 mb 30.37 in1028.4 mb -
Hour Temp Dew Point Humidity Winds Wind Gusts Pressure Precip Precip Rate Daily Precip Total
03:07 AM 44.6°F7.0°C 32.4°F0.2°C 62% 0.4 mph NNE0.6 kmh NNE -- 30.43 in1030.5 mb - 0.00 in0.0 mm 0.00 in0.0 mm
03:02 AM 44.8°F7.1°C 33.4°F0.8°C 64% 0.4 mph NNW0.6 kmh NNW 1.8 mph2.9 kmh 30.43 in1030.5 mb - 0.00 in0.0 mm 0.00 in0.0 mm
02:57 AM 44.6°F7.0°C 32.9°F0.5°C 63% 2.2 mph NE3.5 kmh NE 2.9 mph4.7 kmh 30.43 in1030.5 mb - 0.00 in0.0 mm 0.00 in0.0 mm
02:52 AM 44.6°F7.0°C 32.4°F0.2°C 62% 2.0 mph NNE3.2 kmh NNE 1.6 mph2.6 kmh 30.43 in1030.5 mb - 0.00 in0.0 mm 0.00 in0.0 mm
02:47 AM 44.2°F6.8°C 31.6°F-0.2°C 61% 2.9 mph NNE4.7 kmh NNE 2.7 mph4.3 kmh 30.43 in1030.5 mb - 0.00 in0.0 mm 0.00 in0.0 mm
02:42 AM 44.2°F6.8°C 31.6°F-0.2°C 61% 2.2 mph NE3.5 kmh NE 2.5 mph4.0 kmh 30.43 in1030.5 mb - 0.00 in0.0 mm 0.00 in0.0 mm
02:37 AM 43.9°F6.6°C 30.6°F-0.8°C 59% 1.8 mph ENE2.9 kmh ENE 2.9 mph4.7 kmh 30.43 in1030.5 mb - 0.00 in0.0 mm 0.00 in0.0 mm
02:32 AM 44.4°F6.9°C 31.1°F-0.5°C 59% 2.2 mph E3.5 kmh E 2.7 mph4.3 kmh 30.43 in1030.5 mb - 0.00 in0.0 mm 0.00 in0.0 mm
02:27 AM 45.1°F7.3°C 32.2°F0.1°C 60% 1.3 mph ENE2.1 kmh ENE -- 30.43 in1030.5 mb - 0.00 in0.0 mm 0.00 in0.0 mm
02:22 AM 45.1°F7.3°C 32.5°F0.3°C 61% 0.2 mph NNE0.3 kmh NNE -- 30.40 in1029.5 mb - 0.00 in0.0 mm 0.00 in0.0 mm
02:17 AM 45.1°F7.3°C 32.5°F0.3°C 61% 1.6 mph ENE2.6 kmh ENE 1.8 mph2.9 kmh 30.40 in1029.5 mb - 0.00 in0.0 mm 0.00 in0.0 mm
02:12 AM 45.7°F7.6°C 35.1°F1.7°C 66% 1.6 mph NNE2.6 kmh NNE 1.6 mph2.6 kmh 30.40 in1029.5 mb - 0.00 in0.0 mm 0.00 in0.0 mm
02:07 AM 45.1°F7.3°C 34.2°F1.2°C 65% 3.4 mph NW5.5 kmh NW 3.6 mph5.8 kmh 30.40 in1029.5 mb - 0.00 in0.0 mm 0.00 in0.0 mm
02:02 AM 45.7°F7.6°C 33.4°F0.8°C 62% 4.3 mph NW6.9 kmh NW 4.5 mph7.2 kmh 30.40 in1029.5 mb - 0.00 in0.0 mm 0.00 in0.0 mm
01:57 AM 46.0°F7.8°C 33.8°F1.0°C 62% 3.4 mph NNW5.5 kmh NNW 3.6 mph5.8 kmh 30.40 in1029.5 mb - 0.00 in0.0 mm 0.00 in0.0 mm
01:52 AM 46.2°F7.9°C 33.6°F0.9°C 61% 2.7 mph NNW4.3 kmh NNW 2.9 mph4.7 kmh 30.40 in1029.5 mb - 0.00 in0.0 mm 0.00 in0.0 mm
01:47 AM 46.2°F7.9°C 32.7°F0.4°C 59% 1.3 mph WNW2.1 kmh WNW 2.9 mph4.7 kmh 30.40 in1029.5 mb - 0.00 in0.0 mm 0.00 in0.0 mm
01:42 AM 46.4°F8.0°C 32.0°F0.0°C 57% Calm Calm -- 30.40 in1029.5 mb - 0.00 in0.0 mm 0.00 in0.0 mm
01:37 AM 46.0°F7.8°C 30.4°F-0.9°C 54% 0.7 mph NNE1.1 kmh NNE 1.6 mph2.6 kmh 30.40 in1029.5 mb - 0.00 in0.0 mm 0.00 in0.0 mm
01:32 AM 46.2°F7.9°C 30.6°F-0.8°C 54% Calm Calm -- 30.40 in1029.5 mb - 0.00 in0.0 mm 0.00 in0.0 mm
01:27 AM 46.9°F8.3°C 31.3°F-0.4°C 54% 2.2 mph E3.5 kmh E 2.5 mph4.0 kmh 30.40 in1029.5 mb - 0.00 in0.0 mm 0.00 in0.0 mm
01:22 AM 47.7°F8.7°C 32.7°F0.4°C 56% 0.2 mph ESE0.3 kmh ESE 1.6 mph2.6 kmh 30.40 in1029.5 mb - 0.00 in0.0 mm 0.00 in0.0 mm
01:17 AM 47.8°F8.8°C 32.9°F0.5°C 56% 0.7 mph W1.1 kmh W -- 30.40 in1029.5 mb - 0.00 in0.0 mm 0.00 in0.0 mm
01:12 AM 47.7°F8.7°C 31.8°F-0.1°C 54% Calm Calm -- 30.40 in1029.5 mb - 0.00 in0.0 mm 0.00 in0.0 mm
01:07 AM 47.8°F8.8°C 32.5°F0.3°C 55% Calm Calm -- 30.40 in1029.5 mb - 0.00 in0.0 mm 0.00 in0.0 mm
01:02 AM 48.0°F8.9°C 33.1°F0.6°C 56% Calm Calm -- 30.40 in1029.5 mb - 0.00 in0.0 mm 0.00 in0.0 mm
12:57 AM 47.8°F8.8°C 32.5°F0.3°C 55% 1.6 mph NNW2.6 kmh NNW 1.8 mph2.9 kmh 30.40 in1029.5 mb - 0.00 in0.0 mm 0.00 in0.0 mm
12:52 AM 47.8°F8.8°C 32.0°F0.0°C 54% 2.0 mph NNE3.2 kmh NNE 1.8 mph2.9 kmh 30.40 in1029.5 mb - 0.00 in0.0 mm 0.00 in0.0 mm
12:47 AM 47.8°F8.8°C 31.6°F-0.2°C 53% 0.9 mph NE1.4 kmh NE 1.8 mph2.9 kmh 30.40 in1029.5 mb - 0.00 in0.0 mm 0.00 in0.0 mm
12:42 AM 47.7°F8.7°C 30.9°F-0.6°C 52% Calm Calm -- 30.40 in1029.5 mb - 0.00 in0.0 mm 0.00 in0.0 mm
12:37 AM 48.2°F9.0°C 30.9°F-0.6°C 51% 1.1 mph E1.8 kmh E -- 30.37 in1028.4 mb - 0.00 in0.0 mm 0.00 in0.0 mm
12:32 AM 48.7°F9.3°C 32.0°F0.0°C 52% 2.0 mph E3.2 kmh E 1.8 mph2.9 kmh 30.37 in1028.4 mb - 0.00 in0.0 mm 0.00 in0.0 mm
12:27 AM 48.9°F9.4°C 33.1°F0.6°C 54% Calm Calm -- 30.37 in1028.4 mb - 0.00 in0.0 mm 0.00 in0.0 mm
12:22 AM 48.7°F9.3°C 32.4°F0.2°C 53% 0.4 mph NNE0.6 kmh NNE -- 30.37 in1028.4 mb - 0.00 in0.0 mm 0.00 in0.0 mm
12:17 AM 48.9°F9.4°C 33.1°F0.6°C 54% Calm Calm -- 30.37 in1028.4 mb - 0.00 in0.0 mm 0.00 in0.0 mm
12:12 AM 49.3°F9.6°C 33.4°F0.8°C 54% 2.2 mph NNW3.5 kmh NNW 3.4 mph5.5 kmh 30.37 in1028.4 mb - 0.00 in0.0 mm 0.00 in0.0 mm
12:07 AM 49.6°F9.8°C 33.3°F0.7°C 53% Calm Calm -- 30.37 in1028.4 mb - 0.00 in0.0 mm 0.00 in0.0 mm
12:02 AM 49.8°F9.9°C 33.4°F0.8°C 53% 0.2 mph NW0.3 kmh NW 1.6 mph2.6 kmh 30.37 in1028.4 mb - 0.00 in0.0 mm 0.00 in0.0 mm